createdAt,value
2018-06-13T00:01:44.601Z,75.03
2018-06-13T00:04:13.281Z,75.05
2018-06-13T00:06:41.864Z,75.28
2018-06-13T00:09:10.365Z,75.38
2018-06-13T00:11:39.026Z,74.89
2018-06-13T00:14:07.712Z,75.29
2018-06-13T00:16:36.242Z,76.83
2018-06-13T00:19:04.814Z,76.10
2018-06-13T00:21:33.459Z,76.05
2018-06-13T00:24:02.044Z,75.99
2018-06-13T00:26:30.639Z,77.71
2018-06-13T00:29:00.027Z,76.46
2018-06-13T00:31:28.609Z,76.49
2018-06-13T00:33:57.397Z,76.59
2018-06-13T00:36:26.447Z,76.60
2018-06-13T00:38:55.790Z,75.91
2018-06-13T00:41:24.423Z,76.02
2018-06-13T00:43:53.618Z,76.54
2018-06-13T00:46:22.299Z,76.69
2018-06-13T00:48:50.944Z,76.15
2018-06-13T00:51:19.628Z,76.40
2018-06-13T00:53:48.209Z,75.73
2018-06-13T00:56:29.272Z,78.01
2018-06-13T00:58:57.869Z,77.15
2018-06-13T01:01:26.555Z,76.86
2018-06-13T01:03:55.136Z,76.76
2018-06-13T01:06:23.638Z,77.16
2018-06-13T01:08:52.286Z,77.17
2018-06-13T01:11:20.834Z,77.44
2018-06-13T01:13:50.066Z,77.12
2018-06-13T01:16:18.562Z,77.08
2018-06-13T01:18:47.197Z,77.16
2018-06-13T01:21:15.749Z,76.96
2018-06-13T01:23:44.326Z,78.06
2018-06-13T01:26:13.687Z,77.73
2018-06-13T01:28:42.858Z,78.60
2018-06-13T01:31:11.496Z,77.51
2018-06-13T01:33:40.592Z,77.46
2018-06-13T01:36:09.120Z,77.33
2018-06-13T01:38:37.715Z,77.62
2018-06-13T01:41:06.358Z,77.77
2018-06-13T01:43:35.023Z,78.21
2018-06-13T01:46:03.625Z,77.96
2018-06-13T01:48:32.290Z,78.18
2018-06-13T01:51:00.822Z,78.41
2018-06-13T01:53:30.286Z,78.06
2018-06-13T01:55:58.960Z,79.69
2018-06-13T01:58:27.606Z,79.11
2018-06-13T02:00:56.146Z,80.39
2018-06-13T02:03:24.660Z,79.90
2018-06-13T02:05:53.296Z,79.28
2018-06-13T02:08:22.408Z,79.92
2018-06-13T02:10:51.073Z,79.16
2018-06-13T02:13:19.758Z,78.98
2018-06-13T02:15:48.355Z,78.86
2018-06-13T02:18:17.025Z,79.62
2018-06-13T02:20:45.711Z,80.69
2018-06-13T02:23:14.296Z,81.27
2018-06-13T02:25:42.858Z,79.90
2018-06-13T02:28:11.378Z,79.39
2018-06-13T02:30:40.043Z,80.06
2018-06-13T02:33:08.582Z,79.33
2018-06-13T02:35:37.165Z,79.63
2018-06-13T02:38:05.781Z,79.77
2018-06-13T02:40:34.286Z,79.09
2018-06-13T02:43:02.878Z,79.18
2018-06-13T02:45:31.383Z,78.96
2018-06-13T02:48:00.122Z,79.30
2018-06-13T02:50:28.686Z,79.25
2018-06-13T02:52:57.234Z,79.44
2018-06-13T02:55:25.746Z,78.70
2018-06-13T02:57:54.353Z,78.89
2018-06-13T03:00:23.038Z,78.70
2018-06-13T03:02:51.727Z,78.79
2018-06-13T03:05:20.322Z,79.14
2018-06-13T03:07:48.846Z,78.52
2018-06-13T03:10:17.470Z,79.50
2018-06-13T03:12:46.155Z,79.74
2018-06-13T03:15:14.841Z,78.97
2018-06-13T03:17:43.526Z,78.69
2018-06-13T03:20:12.212Z,80.53
2018-06-13T03:22:40.823Z,80.68
2018-06-13T03:25:09.480Z,80.97
2018-06-13T03:27:38.051Z,81.47
2018-06-13T03:30:06.874Z,81.00
2018-06-13T03:32:35.537Z,81.05
2018-06-13T03:35:04.112Z,81.10
2018-06-13T03:37:32.704Z,81.02
2018-06-13T03:40:02.043Z,81.36
2018-06-13T03:42:30.570Z,81.62
2018-06-13T03:44:59.175Z,81.04
2018-06-13T03:47:27.852Z,81.23
2018-06-13T03:49:56.435Z,81.73
2018-06-13T03:52:25.113Z,80.80
2018-06-13T03:54:53.892Z,80.80
2018-06-13T03:57:22.481Z,81.41
2018-06-13T03:59:51.994Z,81.45
2018-06-13T04:02:20.577Z,80.73
2018-06-13T04:04:49.263Z,80.74
2018-06-13T04:07:18.011Z,80.35
2018-06-13T04:09:46.627Z,80.60
2018-06-13T04:12:15.254Z,81.27
2018-06-13T04:14:43.914Z,81.25
2018-06-13T04:17:12.484Z,82.14
2018-06-13T04:19:41.684Z,82.02
2018-06-13T04:22:10.286Z,81.38
2018-06-13T04:24:39.019Z,82.53
2018-06-13T04:27:07.738Z,80.87
2018-06-13T04:29:36.422Z,81.42
2018-06-13T04:32:04.995Z,81.53
2018-06-13T04:34:34.305Z,81.65
2018-06-13T04:37:02.938Z,80.37
2018-06-13T04:39:31.473Z,80.55
2018-06-13T04:42:00.125Z,80.52
2018-06-13T04:44:28.740Z,79.38
2018-06-13T04:46:57.427Z,80.32
2018-06-13T04:49:26.072Z,79.56
2018-06-13T04:51:54.695Z,79.65
2018-06-13T04:54:23.993Z,79.58
2018-06-13T04:56:52.510Z,79.97
2018-06-13T04:59:21.261Z,79.29
2018-06-13T05:01:49.929Z,78.94
2018-06-13T05:04:18.478Z,78.41
2018-06-13T05:06:47.111Z,78.37
2018-06-13T05:09:15.797Z,78.54
2018-06-13T05:11:44.379Z,78.23
2018-06-13T05:14:12.907Z,78.26
2018-06-13T05:16:41.545Z,78.37
2018-06-13T05:19:10.038Z,77.73
2018-06-13T05:21:38.710Z,77.74
2018-06-13T05:24:07.280Z,77.32
2018-06-13T05:26:35.877Z,76.61
2018-06-13T05:29:04.706Z,76.03
2018-06-13T05:31:33.454Z,75.63
2018-06-13T05:34:01.967Z,75.58
2018-06-13T05:36:30.570Z,74.92
2018-06-13T05:38:59.307Z,75.30
2018-06-13T05:41:27.887Z,73.91
2018-06-13T05:43:56.535Z,73.19
2018-06-13T05:46:25.058Z,73.30
2018-06-13T05:48:53.558Z,73.81
2018-06-13T05:51:22.219Z,73.54
2018-06-13T05:53:51.537Z,73.55
2018-06-13T05:56:20.263Z,73.60
2018-06-13T05:58:48.897Z,73.09
2018-06-13T06:01:17.545Z,72.74
2018-06-13T06:03:46.155Z,72.64
2018-06-13T06:06:14.840Z,72.54
2018-06-13T06:08:43.470Z,71.31
2018-06-13T06:11:12.928Z,71.51
2018-06-13T06:13:41.526Z,71.99
2018-06-13T06:16:10.142Z,72.24
2018-06-13T06:18:38.728Z,72.14
2018-06-13T06:21:07.614Z,72.39
2018-06-13T06:23:36.261Z,71.85
2018-06-13T06:26:04.993Z,71.56
2018-06-13T06:28:33.621Z,71.87
2018-06-13T06:31:02.308Z,71.36
2018-06-13T06:33:30.954Z,71.62
2018-06-13T06:35:59.576Z,71.21
2018-06-13T06:38:28.157Z,72.00
2018-06-13T06:40:56.690Z,71.47
2018-06-13T06:43:25.326Z,71.24
2018-06-13T06:45:53.828Z,70.71
2018-06-13T06:48:22.379Z,70.92
2018-06-13T06:50:51.034Z,70.79
2018-06-13T06:53:19.543Z,70.61
2018-06-13T06:55:48.226Z,70.03
2018-06-13T06:58:16.763Z,70.07
2018-06-13T07:00:45.404Z,69.80
2018-06-13T07:03:13.988Z,69.61
2018-06-13T07:05:42.528Z,69.98
2018-06-13T07:08:11.256Z,69.86
2018-06-13T07:10:39.941Z,68.97
2018-06-13T07:13:08.511Z,70.06
2018-06-13T07:15:37.040Z,68.52
2018-06-13T07:18:06.420Z,68.92
2018-06-13T07:20:35.001Z,68.94
2018-06-13T07:23:03.501Z,69.12
2018-06-13T07:25:32.059Z,68.58
2018-06-13T07:28:00.591Z,67.85
2018-06-13T07:30:29.321Z,68.46
2018-06-13T07:32:57.903Z,67.73
2018-06-13T07:35:26.410Z,67.43
2018-06-13T07:37:55.893Z,66.85
2018-06-13T07:40:24.474Z,66.67
2018-06-13T07:42:53.116Z,67.57
2018-06-13T07:45:21.739Z,67.17
2018-06-13T07:47:50.321Z,67.88
2018-06-13T07:50:18.905Z,68.12
2018-06-13T07:52:47.534Z,68.14
2018-06-13T07:55:16.058Z,67.63
2018-06-13T07:57:44.566Z,67.22
2018-06-13T08:00:13.237Z,67.23
2018-06-13T08:02:41.813Z,66.44
2018-06-13T08:05:10.322Z,66.59
2018-06-13T08:07:38.898Z,66.48
2018-06-13T08:10:07.474Z,66.50
2018-06-13T08:12:36.096Z,65.51
2018-06-13T08:15:05.028Z,66.13
2018-06-13T08:17:33.662Z,66.38
2018-06-13T08:20:02.210Z,65.89
2018-06-13T08:22:30.795Z,66.07
2018-06-13T08:24:59.371Z,66.19
2018-06-13T08:27:27.954Z,65.38
2018-06-13T08:29:56.564Z,65.14
2018-06-13T08:32:25.266Z,65.05
2018-06-13T08:34:53.926Z,65.22
2018-06-13T08:37:22.531Z,64.76
2018-06-13T08:39:51.140Z,64.03
2018-06-13T08:42:19.759Z,63.65
2018-06-13T08:44:48.386Z,63.38
2018-06-13T08:47:17.045Z,63.97
2018-06-13T08:49:45.550Z,63.20
2018-06-13T08:52:14.193Z,62.90
2018-06-13T08:54:42.690Z,62.35
2018-06-13T08:57:11.872Z,61.55
2018-06-13T08:59:40.455Z,62.08
2018-06-13T09:02:08.958Z,61.09
2018-06-13T09:04:37.519Z,62.01
2018-06-13T09:07:06.202Z,62.27
2018-06-13T09:09:34.887Z,62.73
2018-06-13T09:12:03.594Z,62.68
2018-06-13T09:14:32.261Z,62.04
2018-06-13T09:17:00.842Z,61.10
2018-06-13T09:19:29.423Z,62.01
2018-06-13T09:21:57.906Z,61.24
2018-06-13T09:24:26.494Z,61.00
2018-06-13T09:26:54.970Z,61.06
2018-06-13T09:29:23.635Z,61.51
2018-06-13T09:31:52.339Z,61.02
2018-06-13T09:34:20.866Z,60.15
2018-06-13T09:36:49.504Z,60.51
2018-06-13T09:39:18.193Z,59.66
2018-06-13T09:41:51.996Z,60.60
2018-06-13T09:44:20.682Z,61.06
2018-06-13T09:46:49.263Z,60.40
2018-06-13T09:49:17.779Z,59.93
2018-06-13T09:51:46.429Z,59.13
2018-06-13T09:54:15.081Z,59.80
2018-06-13T09:56:43.743Z,58.43
2018-06-13T09:59:13.642Z,57.59
2018-06-13T10:01:47.473Z,59.13
2018-06-13T10:04:16.014Z,57.53
2018-06-13T10:06:44.629Z,59.19
2018-06-13T10:09:13.676Z,59.24
2018-06-13T10:11:42.362Z,59.53
2018-06-13T10:14:10.899Z,58.63
2018-06-13T10:16:39.441Z,58.89
2018-06-13T10:19:08.667Z,59.89
2018-06-13T10:21:37.850Z,59.01
2018-06-13T10:24:06.505Z,58.40
2018-06-13T10:26:35.533Z,58.41
2018-06-13T10:29:04.713Z,59.76
2018-06-13T10:31:33.379Z,59.04
2018-06-13T10:34:01.915Z,58.66
2018-06-13T10:36:30.566Z,59.28
2018-06-13T10:38:59.779Z,58.49
2018-06-13T10:41:28.428Z,58.59
2018-06-13T10:43:57.625Z,58.32
2018-06-13T10:46:26.118Z,59.03
2018-06-13T10:48:54.610Z,58.28
2018-06-13T10:51:23.111Z,58.46
2018-06-13T10:53:51.659Z,58.34
2018-06-13T10:56:21.047Z,58.35
2018-06-13T10:58:50.148Z,58.57
2018-06-13T11:01:18.791Z,58.68
2018-06-13T11:03:47.417Z,58.24
2018-06-13T11:06:15.997Z,57.66
2018-06-13T11:08:45.299Z,58.02
2018-06-13T11:11:13.879Z,57.90
2018-06-13T11:13:42.926Z,57.10
2018-06-13T11:16:12.199Z,56.48
2018-06-13T11:18:40.798Z,56.57
2018-06-13T11:21:09.440Z,56.47
2018-06-13T11:23:38.125Z,57.28
2018-06-13T11:26:06.826Z,57.90
2018-06-13T11:28:35.456Z,58.30
2018-06-13T11:31:04.078Z,59.07
2018-06-13T11:33:32.610Z,57.64
2018-06-13T11:36:01.244Z,57.51
2018-06-13T11:38:29.870Z,57.56
2018-06-13T11:40:58.394Z,57.94
2018-06-13T11:43:27.604Z,57.59
2018-06-13T11:45:56.402Z,58.93
2018-06-13T11:48:24.914Z,58.36
2018-06-13T11:50:53.506Z,58.67
2018-06-13T11:53:22.146Z,58.38
2018-06-13T11:55:50.642Z,58.71
2018-06-13T11:58:19.254Z,58.41
2018-06-13T12:00:47.886Z,58.06
2018-06-13T12:03:16.475Z,57.97
2018-06-13T12:05:45.104Z,57.92
2018-06-13T12:08:13.810Z,57.30
2018-06-13T12:10:42.411Z,57.53
2018-06-13T12:13:10.940Z,57.16
2018-06-13T12:15:39.966Z,55.75
2018-06-13T12:18:09.360Z,55.17
2018-06-13T12:20:37.955Z,55.03
2018-06-13T12:23:06.572Z,55.27
2018-06-13T12:25:35.099Z,55.50
2018-06-13T12:28:03.632Z,54.98
2018-06-13T12:30:32.466Z,54.95
2018-06-13T12:33:01.827Z,55.73
2018-06-13T12:35:30.521Z,56.15
2018-06-13T12:37:59.170Z,54.28
2018-06-13T12:40:27.739Z,54.09
2018-06-13T12:42:56.361Z,53.96
2018-06-13T12:45:24.969Z,55.08
2018-06-13T12:47:53.564Z,54.11
2018-06-13T12:50:22.110Z,53.38
2018-06-13T12:52:50.693Z,51.84
2018-06-13T12:55:19.275Z,52.35
2018-06-13T12:57:47.859Z,52.91
2018-06-13T13:00:16.347Z,52.99
2018-06-13T13:02:44.878Z,52.88
2018-06-13T13:05:13.481Z,52.25
2018-06-13T13:07:43.421Z,52.04
2018-06-13T13:10:12.023Z,51.95
2018-06-13T13:12:40.835Z,51.00
2018-06-13T13:15:09.856Z,50.88
2018-06-13T13:17:38.378Z,52.18
2018-06-13T13:20:07.831Z,51.07
2018-06-13T13:22:36.358Z,51.47
2018-06-13T13:25:05.006Z,51.40
2018-06-13T13:27:33.678Z,50.17
2018-06-13T13:30:02.388Z,50.69
2018-06-13T13:32:31.040Z,50.96
2018-06-13T13:34:59.673Z,50.85
2018-06-13T13:37:29.342Z,49.68
2018-06-13T13:39:58.225Z,49.88
2018-06-13T13:42:26.962Z,50.41
2018-06-13T13:44:55.793Z,49.61
2018-06-13T13:47:24.379Z,51.08
2018-06-13T13:49:53.014Z,49.80
2018-06-13T13:52:21.635Z,49.31
2018-06-13T13:54:50.858Z,49.75
2018-06-13T13:57:20.097Z,49.13
2018-06-13T13:59:48.677Z,49.76
2018-06-13T14:02:17.326Z,50.26
2018-06-13T14:04:45.882Z,50.18
2018-06-13T14:07:14.534Z,50.00
2018-06-13T14:09:43.139Z,49.95
2018-06-13T14:12:11.703Z,49.41
2018-06-13T14:14:40.431Z,50.06
2018-06-13T14:17:09.074Z,50.17
2018-06-13T14:19:37.658Z,50.47
2018-06-13T14:22:06.423Z,49.97
2018-06-13T14:24:35.020Z,50.42
2018-06-13T14:27:03.707Z,50.31
2018-06-13T14:29:32.237Z,50.87
2018-06-13T14:32:00.842Z,50.52
2018-06-13T14:34:29.426Z,51.15
2018-06-13T14:36:57.979Z,49.94
2018-06-13T14:39:26.530Z,51.20
2018-06-13T14:41:55.158Z,51.66
2018-06-13T14:44:23.783Z,51.49
2018-06-13T14:46:52.366Z,51.24
2018-06-13T14:49:20.908Z,51.88
2018-06-13T14:51:54.426Z,50.51
2018-06-13T14:54:23.088Z,50.86
2018-06-13T14:56:51.755Z,51.14
2018-06-13T14:59:20.310Z,51.51
2018-06-13T15:01:48.843Z,51.26
2018-06-13T15:04:21.668Z,50.94
2018-06-13T15:06:50.348Z,50.96
2018-06-13T15:09:18.953Z,51.44
2018-06-13T15:11:48.485Z,52.16
2018-06-13T15:14:17.058Z,51.49
2018-06-13T15:16:45.706Z,50.60
2018-06-13T15:19:14.970Z,50.94
2018-06-13T15:21:43.529Z,52.20
2018-06-13T15:24:12.167Z,50.92
2018-06-13T15:26:40.799Z,51.06
2018-06-13T15:29:09.527Z,51.42
2018-06-13T15:31:38.223Z,51.58
2018-06-13T15:34:07.363Z,51.47
2018-06-13T15:36:36.004Z,51.35
2018-06-13T15:39:07.149Z,50.73
2018-06-13T15:41:35.730Z,50.88
2018-06-13T15:44:04.434Z,51.39
2018-06-13T15:46:33.039Z,49.84
2018-06-13T15:49:01.650Z,51.66
2018-06-13T15:51:30.238Z,51.50
2018-06-13T15:53:59.723Z,50.38
2018-06-13T15:56:28.458Z,51.31
2018-06-13T15:58:57.038Z,50.74
2018-06-13T16:01:25.683Z,51.06
2018-06-13T16:03:54.305Z,50.86
2018-06-13T16:06:22.960Z,51.10
2018-06-13T16:08:51.576Z,51.21
2018-06-13T16:11:20.259Z,50.86
2018-06-13T16:13:48.782Z,50.28
2018-06-13T16:16:17.380Z,51.37
2018-06-13T16:18:46.009Z,51.29
2018-06-13T16:21:14.513Z,51.59
2018-06-13T16:23:43.818Z,51.58
2018-06-13T16:26:13.110Z,51.03
2018-06-13T16:28:41.877Z,51.36
2018-06-13T16:31:12.000Z,51.24
2018-06-13T16:33:40.783Z,51.89
2018-06-13T16:36:09.320Z,50.27
2018-06-13T16:38:38.672Z,50.54
2018-06-13T16:41:07.351Z,51.15
2018-06-13T16:43:35.935Z,51.08
2018-06-13T16:46:04.619Z,51.51
2018-06-13T16:48:33.312Z,51.63
2018-06-13T16:51:13.053Z,51.94
2018-06-13T16:53:57.606Z,50.87
2018-06-13T16:56:27.556Z,51.78
2018-06-13T16:58:56.751Z,51.82
2018-06-13T17:01:25.362Z,51.93
2018-06-13T17:03:55.056Z,51.61
2018-06-13T17:06:23.965Z,52.23
2018-06-13T17:08:53.108Z,51.97
2018-06-13T17:11:21.786Z,52.70
2018-06-13T17:13:50.334Z,53.15
2018-06-13T17:16:18.958Z,52.89
2018-06-13T17:18:47.534Z,53.94
2018-06-13T17:21:16.216Z,53.97
2018-06-13T17:23:44.803Z,53.89
2018-06-13T17:26:13.532Z,53.70
2018-06-13T17:28:43.129Z,54.43
2018-06-13T17:31:12.595Z,54.13
2018-06-13T17:33:41.222Z,54.42
2018-06-13T17:36:09.864Z,54.41
2018-06-13T17:38:38.556Z,54.80
2018-06-13T17:41:07.074Z,54.84
2018-06-13T17:43:35.648Z,55.04
2018-06-13T17:46:04.611Z,55.16
2018-06-13T17:48:34.138Z,54.96
2018-06-13T17:51:03.991Z,55.20
2018-06-13T17:53:34.166Z,55.41
2018-06-13T17:56:02.780Z,55.33
2018-06-13T17:58:31.360Z,55.18
2018-06-13T18:00:59.994Z,55.10
2018-06-13T18:03:28.596Z,55.62
2018-06-13T18:05:57.832Z,56.30
2018-06-13T18:08:26.515Z,55.95
2018-06-13T18:10:55.579Z,56.88
2018-06-13T18:13:24.243Z,56.46
2018-06-13T18:15:52.826Z,57.17
2018-06-13T18:18:21.453Z,58.36
2018-06-13T18:20:52.035Z,58.48
2018-06-13T18:23:20.721Z,58.64
2018-06-13T18:25:49.387Z,59.74
2018-06-13T18:28:17.927Z,59.96
2018-06-13T18:30:46.681Z,60.30
2018-06-13T18:33:16.603Z,60.18
2018-06-13T18:35:45.230Z,60.43
2018-06-13T18:38:13.864Z,61.86
2018-06-13T18:40:44.103Z,61.84
2018-06-13T18:43:13.582Z,61.66
2018-06-13T18:45:42.678Z,61.74
2018-06-13T18:48:11.464Z,61.88
2018-06-13T18:50:40.096Z,61.99
2018-06-13T18:53:08.837Z,62.14
2018-06-13T18:55:38.033Z,62.31
2018-06-13T18:58:06.820Z,61.48
2018-06-13T19:00:35.453Z,61.92
2018-06-13T19:03:04.054Z,62.40
2018-06-13T19:05:32.594Z,61.82
2018-06-13T19:08:01.630Z,62.04
2018-06-13T19:10:31.258Z,61.89
2018-06-13T19:12:59.879Z,62.24
2018-06-13T19:15:28.641Z,62.42
2018-06-13T19:17:57.272Z,61.94
2018-06-13T19:20:26.585Z,62.32
2018-06-13T19:22:55.169Z,62.71
2018-06-13T19:25:24.213Z,62.24
2018-06-13T19:27:52.888Z,62.12
2018-06-13T19:30:21.529Z,61.94
2018-06-13T19:32:50.263Z,62.00
2018-06-13T19:35:19.765Z,61.70
2018-06-13T19:37:48.451Z,62.15
2018-06-13T19:40:17.062Z,62.57
2018-06-13T19:42:45.816Z,63.44
2018-06-13T19:45:14.442Z,63.05
2018-06-13T19:47:48.134Z,62.78
2018-06-13T19:50:16.788Z,62.89
2018-06-13T19:52:50.697Z,63.35
2018-06-13T19:55:24.526Z,62.86
2018-06-13T19:57:53.256Z,63.23
2018-06-13T20:00:23.261Z,62.52
2018-06-13T20:02:57.037Z,62.47
2018-06-13T20:05:30.814Z,62.14
2018-06-13T20:07:59.717Z,62.54
2018-06-13T20:10:28.314Z,62.65
2018-06-13T20:13:02.193Z,63.07
2018-06-13T20:15:36.086Z,63.12
2018-06-13T20:18:09.875Z,63.30
2018-06-13T20:20:38.591Z,63.69
2018-06-13T20:23:07.138Z,64.07
2018-06-13T20:25:40.979Z,63.35
2018-06-13T20:28:14.744Z,63.09
2018-06-13T20:30:49.268Z,63.30
2018-06-13T20:33:17.880Z,63.54
2018-06-13T20:35:46.426Z,63.67
2018-06-13T20:38:15.567Z,63.82
2018-06-13T20:40:44.247Z,63.77
2018-06-13T20:43:12.897Z,63.98
2018-06-13T20:45:41.494Z,63.97
2018-06-13T20:48:10.104Z,63.96
2018-06-13T20:50:38.961Z,63.70
2018-06-13T20:53:08.222Z,64.25
2018-06-13T20:55:36.851Z,63.76
2018-06-13T20:58:05.888Z,64.01
2018-06-13T21:00:34.493Z,64.53
2018-06-13T21:03:03.650Z,64.03
2018-06-13T21:05:32.150Z,64.93
2018-06-13T21:08:00.772Z,64.41
2018-06-13T21:10:29.399Z,64.30
2018-06-13T21:12:57.922Z,64.27
2018-06-13T21:15:26.549Z,64.27
2018-06-13T21:17:55.149Z,63.84
2018-06-13T21:20:23.915Z,63.55
2018-06-13T21:22:52.618Z,62.99
2018-06-13T21:25:21.226Z,63.46
2018-06-13T21:27:49.790Z,63.90
2018-06-13T21:30:18.306Z,63.55
2018-06-13T21:32:46.906Z,63.56
2018-06-13T21:35:18.151Z,63.36
2018-06-13T21:40:48.565Z,63.26
2018-06-13T21:43:19.342Z,63.29
2018-06-13T21:45:47.975Z,63.40
2018-06-13T21:48:16.541Z,63.45
2018-06-13T21:50:45.055Z,63.94
2018-06-13T21:53:14.628Z,63.93
2018-06-13T21:55:43.211Z,63.47
2018-06-13T21:58:11.794Z,63.52
2018-06-13T22:00:40.390Z,63.29
2018-06-13T22:03:08.961Z,63.31
2018-06-13T22:05:37.543Z,63.33
2018-06-13T22:08:06.560Z,63.02
2018-06-13T22:10:35.220Z,63.14
2018-06-13T22:13:03.906Z,63.07
2018-06-13T22:15:32.506Z,63.21
2018-06-13T22:18:01.121Z,62.91
2018-06-13T22:20:29.801Z,62.61
2018-06-13T22:22:58.482Z,63.14
2018-06-13T22:25:27.080Z,63.19
2018-06-13T22:27:55.658Z,63.11
2018-06-13T22:30:25.011Z,63.50
2018-06-13T22:32:53.751Z,62.89
2018-06-13T22:35:22.385Z,63.45
2018-06-13T22:37:51.034Z,62.83
2018-06-13T22:40:19.651Z,63.14
2018-06-13T22:42:48.146Z,63.47
2018-06-13T22:45:16.817Z,63.66
2018-06-13T22:47:45.318Z,64.49
2018-06-13T22:50:14.395Z,64.56
2018-06-13T22:52:42.936Z,64.90
2018-06-13T22:55:11.558Z,65.08
2018-06-13T22:57:40.245Z,65.16
2018-06-13T23:00:08.932Z,64.24
2018-06-13T23:02:38.025Z,64.63
2018-06-13T23:05:06.659Z,64.95
2018-06-13T23:07:35.306Z,65.25
2018-06-13T23:10:04.080Z,65.03
2018-06-13T23:12:32.686Z,65.31
2018-06-13T23:15:01.683Z,65.24
2018-06-13T23:17:30.259Z,65.79
2018-06-13T23:19:58.921Z,65.29
2018-06-13T23:22:27.677Z,64.54
2018-06-13T23:24:56.234Z,64.24
2018-06-13T23:27:25.591Z,64.55
2018-06-13T23:29:54.211Z,64.80
2018-06-13T23:32:22.860Z,64.17
2018-06-13T23:34:51.369Z,63.43
2018-06-13T23:37:19.978Z,64.11
2018-06-13T23:39:48.507Z,64.33
2018-06-13T23:42:17.192Z,63.74
2018-06-13T23:44:45.814Z,63.81
2018-06-13T23:47:14.491Z,63.79
2018-06-13T23:49:43.046Z,64.29
2018-06-13T23:52:11.666Z,64.26
2018-06-13T23:54:40.254Z,64.81
2018-06-13T23:57:08.832Z,65.16
2018-06-13T23:59:37.394Z,64.91
